Time,TemperatureF,DewpointF,PressureIn,WindDirection,WindDirectionDegrees,WindSpeedMPH,WindSpeedGustMPH,Humidity,HourlyPrecipIn,Conditions,Clouds,dailyrainin,SoftwareType,DateUTC
2013-11-07 00:52:00,31.0,29.0,30.31,NW,319,0.0,4.0,93,0.00,,,0.00,,2013-11-07 06:52:00,
2013-11-07 01:12:00,31.0,29.0,30.31,NW,319,0.0,2.0,93,0.00,,,0.00,,2013-11-07 07:12:00,
2013-11-07 01:22:00,31.0,29.0,30.31,NW,319,0.0,1.0,93,0.00,,,0.00,,2013-11-07 07:22:00,
2013-11-07 01:42:00,30.0,28.0,30.31,NW,319,0.0,1.0,93,0.00,,,0.00,,2013-11-07 07:42:00,
2013-11-07 01:52:00,30.0,28.0,30.32,NW,319,1.0,2.0,93,0.00,,,0.00,,2013-11-07 07:52:00,
2013-11-07 02:22:00,30.0,28.0,30.32,NW,319,0.0,2.0,93,0.00,,,0.00,,2013-11-07 08:22:00,
2013-11-07 02:42:00,30.0,28.0,30.32,NW,319,1.0,3.0,93,0.00,,,0.00,,2013-11-07 08:42:00,
2013-11-07 02:53:00,30.0,28.0,30.31,NW,319,0.0,2.0,93,0.00,,,0.00,,2013-11-07 08:53:00,
2013-11-07 03:11:00,30.0,28.0,30.32,North,355,0.0,4.0,94,0.00,,,0.00,,2013-11-07 09:11:00,
2013-11-07 03:22:00,30.0,28.0,30.33,North,355,1.0,3.0,93,0.00,,,0.00,,2013-11-07 09:22:00,
2013-11-07 03:42:00,30.0,28.0,30.32,WNW,301,1.0,4.0,93,0.00,,,0.00,,2013-11-07 09:42:00,
2013-11-07 03:53:00,30.0,28.0,30.31,NNW,338,0.0,4.0,93,0.00,,,0.00,,2013-11-07 09:53:00,
2013-11-07 04:13:00,31.0,29.0,30.32,NNW,338,0.0,2.0,92,0.00,,,0.00,,2013-11-07 10:13:00,
2013-11-07 04:23:00,31.0,29.0,30.32,NNE,17,1.0,4.0,92,0.00,,,0.00,,2013-11-07 10:23:00,
2013-11-07 04:42:00,31.0,29.0,30.33,North,5,3.0,5.0,91,0.00,,,0.00,,2013-11-07 10:42:00,
2013-11-07 04:53:00,31.0,28.0,30.33,North,5,0.0,3.0,90,0.00,,,0.00,,2013-11-07 10:53:00,
2013-11-07 05:12:00,30.0,27.0,30.34,North,5,0.0,2.0,90,0.00,,,0.00,,2013-11-07 11:12:00,
2013-11-07 05:22:00,29.0,27.0,30.35,North,5,0.0,3.0,91,0.00,,,0.00,,2013-11-07 11:22:00,
2013-11-07 05:43:00,29.0,27.0,30.35,North,5,0.0,2.0,91,0.00,,,0.00,,2013-11-07 11:43:00,
2013-11-07 05:52:00,29.0,27.0,30.35,North,5,0.0,1.0,91,0.00,,,0.00,,2013-11-07 11:52:00,
2013-11-07 06:12:00,29.0,27.0,30.36,North,5,0.0,2.0,92,0.00,,,0.00,,2013-11-07 12:12:00,
2013-11-07 06:22:00,29.0,27.0,30.37,NW,315,1.0,4.0,91,0.00,,,0.00,,2013-11-07 12:22:00,
2013-11-07 06:42:00,29.0,27.0,30.37,NW,315,1.0,3.0,91,0.00,,,0.00,,2013-11-07 12:42:00,
2013-11-07 06:52:00,29.0,27.0,30.37,NNW,327,0.0,3.0,92,0.00,,,0.00,,2013-11-07 12:52:00,
2013-11-07 07:12:00,30.0,28.0,30.38,NNE,13,3.0,5.0,92,0.00,,,0.00,,2013-11-07 13:12:00,
2013-11-07 07:21:00,31.0,29.0,30.38,North,360,3.0,7.0,91,0.00,,,0.00,,2013-11-07 13:21:00,
2013-11-07 07:42:00,32.0,29.0,30.39,North,5,3.0,6.0,89,0.00,,,0.00,,2013-11-07 13:42:00,
2013-11-07 07:52:00,32.0,29.0,30.40,North,5,3.0,6.0,89,0.00,,,0.00,,2013-11-07 13:52:00,
2013-11-07 08:12:00,32.0,29.0,30.40,NNW,347,3.0,7.0,89,0.00,,,0.00,,2013-11-07 14:12:00,
2013-11-07 08:22:00,33.0,30.0,30.41,North,360,4.0,8.0,89,0.00,,,0.00,,2013-11-07 14:22:00,
2013-11-07 08:42:00,34.0,31.0,30.41,NNE,17,2.0,7.0,89,0.00,,,0.00,,2013-11-07 14:42:00,
2013-11-07 08:52:00,34.0,31.0,30.42,NE,34,1.0,6.0,90,0.00,,,0.00,,2013-11-07 14:52:00,
2013-11-07 09:11:00,36.0,33.0,30.43,NNE,13,1.0,6.0,89,0.00,,,0.00,,2013-11-07 15:11:00,
2013-11-07 09:22:00,37.0,34.0,30.44,North,5,3.0,6.0,87,0.00,,,0.00,,2013-11-07 15:22:00,
2013-11-07 09:43:00,39.0,35.0,30.43,North,360,4.0,8.0,85,0.00,,,0.00,,2013-11-07 15:43:00,
2013-11-07 09:53:00,40.0,35.0,30.43,NNW,344,5.0,8.0,81,0.00,,,0.00,,2013-11-07 15:53:00,
2013-11-07 10:13:00,41.0,34.0,30.44,NW,317,5.0,9.0,76,0.00,,,0.00,,2013-11-07 16:13:00,
2013-11-07 10:23:00,42.0,34.0,30.44,North,360,4.0,9.0,74,0.00,,,0.00,,2013-11-07 16:23:00,
2013-11-07 10:42:00,43.0,34.0,30.44,North,355,4.0,10.0,71,0.00,,,0.00,,2013-11-07 16:42:00,
2013-11-07 10:52:00,45.0,35.0,30.44,North,10,5.0,9.0,68,0.00,,,0.00,,2013-11-07 16:52:00,
2013-11-07 11:22:00,47.0,33.0,30.44,NNW,346,5.0,11.0,59,0.00,,,0.00,,2013-11-07 17:22:00,
2013-11-07 11:43:00,48.0,32.0,30.44,NNE,30,6.0,11.0,54,0.00,,,0.00,,2013-11-07 17:43:00,
2013-11-07 12:12:00,48.0,31.0,30.43,NNW,346,5.0,11.0,51,0.00,,,0.00,,2013-11-07 18:12:00,
2013-11-07 12:23:00,49.0,31.0,30.42,NNW,338,5.0,13.0,50,0.00,,,0.00,,2013-11-07 18:23:00,
2013-11-07 12:42:00,50.0,32.0,30.42,NNW,335,4.0,8.0,50,0.00,,,0.00,,2013-11-07 18:42:00,
2013-11-07 12:52:00,50.0,32.0,30.41,NE,49,4.0,11.0,50,0.00,,,0.00,,2013-11-07 18:52:00,
2013-11-07 13:21:00,51.0,30.0,30.40,NE,46,5.0,12.0,45,0.00,,,0.00,,2013-11-07 19:21:00,
2013-11-07 13:42:00,51.0,29.0,30.40,North,351,4.0,12.0,43,0.00,,,0.00,,2013-11-07 19:42:00,
2013-11-07 13:52:00,52.0,30.0,30.39,NE,44,3.0,10.0,42,0.00,,,0.00,,2013-11-07 19:52:00,
2013-11-07 14:21:00,53.0,29.0,30.38,ENE,68,4.0,8.0,39,0.00,,,0.00,,2013-11-07 20:21:00,
2013-11-07 14:42:00,53.0,29.0,30.38,North,5,4.0,9.0,40,0.00,,,0.00,,2013-11-07 20:42:00,
2013-11-07 14:52:00,52.0,28.0,30.38,NNE,19,4.0,12.0,40,0.00,,,0.00,,2013-11-07 20:52:00,
2013-11-07 15:12:00,52.0,28.0,30.38,NNW,348,4.0,10.0,40,0.00,,,0.00,,2013-11-07 21:12:00,
2013-11-07 15:22:00,51.0,28.0,30.37,NW,318,3.0,7.0,41,0.00,,,0.00,,2013-11-07 21:22:00,
2013-11-07 15:43:00,52.0,29.0,30.37,North,10,3.0,7.0,41,0.00,,,0.00,,2013-11-07 21:43:00,
2013-11-07 15:54:00,52.0,29.0,30.37,NNE,29,1.0,6.0,41,0.00,,,0.00,,2013-11-07 21:54:00,
2013-11-07 16:13:00,52.0,30.0,30.37,NE,51,0.0,6.0,42,0.00,,,0.00,,2013-11-07 22:13:00,
2013-11-07 16:23:00,52.0,29.0,30.36,NE,55,1.0,4.0,41,0.00,,,0.00,,2013-11-07 22:23:00,
2013-11-07 16:43:00,51.0,30.0,30.36,NE,53,0.0,2.0,45,0.00,,,0.00,,2013-11-07 22:43:00,
2013-11-07 16:53:00,51.0,31.0,30.36,NE,53,0.0,3.0,46,0.00,,,0.00,,2013-11-07 22:53:00,
2013-11-07 17:12:00,50.0,32.0,30.36,NE,53,0.0,0.0,49,0.00,,,0.00,,2013-11-07 23:12:00,
2013-11-07 17:22:00,48.0,32.0,30.36,NE,53,0.0,0.0,53,0.00,,,0.00,,2013-11-07 23:22:00,
2013-11-07 17:43:00,47.0,31.0,30.36,NE,53,0.0,0.0,54,0.00,,,0.00,,2013-11-07 23:43:00,
2013-11-07 17:53:00,45.0,29.0,30.35,NE,53,0.0,0.0,54,0.00,,,0.00,,2013-11-07 23:53:00,
2013-11-07 18:12:00,44.0,29.0,30.36,NE,53,0.0,0.0,55,0.00,,,0.00,,2013-11-08 00:12:00,
2013-11-07 18:22:00,44.0,28.0,30.35,NE,53,0.0,0.0,53,0.00,,,0.00,,2013-11-08 00:22:00,
2013-11-07 18:42:00,42.0,29.0,30.35,NE,53,0.0,0.0,60,0.00,,,0.00,,2013-11-08 00:42:00,
2013-11-07 18:52:00,41.0,28.0,30.35,NE,53,0.0,0.0,60,0.00,,,0.00,,2013-11-08 00:52:00,
2013-11-07 19:22:00,38.0,30.0,30.35,East,94,0.0,3.0,72,0.00,,,0.00,,2013-11-08 01:22:00,
2013-11-07 19:42:00,38.0,29.0,30.35,East,94,0.0,0.0,71,0.00,,,0.00,,2013-11-08 01:42:00,
2013-11-07 19:52:00,38.0,29.0,30.35,East,94,0.0,0.0,70,0.00,,,0.00,,2013-11-08 01:52:00,
2013-11-07 20:12:00,36.0,28.0,30.34,East,93,0.0,1.0,73,0.00,,,0.00,,2013-11-08 02:12:00,
2013-11-07 20:21:00,36.0,29.0,30.34,East,93,0.0,0.0,74,0.00,,,0.00,,2013-11-08 02:21:00,
2013-11-07 20:42:00,36.0,29.0,30.34,East,93,0.0,0.0,75,0.00,,,0.00,,2013-11-08 02:42:00,
2013-11-07 20:52:00,36.0,29.0,30.34,East,93,0.0,0.0,75,0.00,,,0.00,,2013-11-08 02:52:00,
2013-11-07 21:11:00,35.0,29.0,30.34,East,93,0.0,0.0,78,0.00,,,0.00,,2013-11-08 03:11:00,
2013-11-07 21:22:00,35.0,29.0,30.33,East,93,0.0,0.0,77,0.00,,,0.00,,2013-11-08 03:22:00,
2013-11-07 21:44:00,35.0,28.0,30.33,East,95,0.0,0.0,76,0.00,,,0.00,,2013-11-08 03:44:00,
2013-11-07 21:55:00,35.0,28.0,30.32,East,95,0.0,0.0,76,0.00,,,0.00,,2013-11-08 03:55:00,
2013-11-07 22:23:00,33.0,27.0,30.31,East,95,0.0,0.0,78,0.00,,,0.00,,2013-11-08 04:23:00,
2013-11-07 22:43:00,33.0,27.0,30.31,SSW,203,1.0,2.0,79,0.00,,,0.00,,2013-11-08 04:43:00,
2013-11-07 22:54:00,33.0,27.0,30.30,SSW,195,0.0,4.0,78,0.00,,,0.00,,2013-11-08 04:54:00,
2013-11-07 23:13:00,34.0,27.0,30.29,South,190,1.0,4.0,76,0.00,,,0.00,,2013-11-08 05:13:00,
2013-11-07 23:23:00,34.0,27.0,30.29,South,178,2.0,4.0,75,0.00,,,0.00,,2013-11-08 05:23:00,
2013-11-07 23:43:00,34.0,27.0,30.28,South,173,2.0,3.0,75,0.00,,,0.00,,2013-11-08 05:43:00,
2013-11-07 23:54:00,34.0,27.0,30.28,SSE,156,2.0,4.0,76,0.00,,,0.00,,2013-11-08 05:54:00,